sensor_id;sensor_type;location;lat;lon;timestamp;pressure;altitude;pressure_sealevel;temperature;humidity
19005;BME280;9635;52.078;8.648;2023-03-14T00:00:50;97904.78;;;11.09;62.94
19005;BME280;9635;52.078;8.648;2023-03-14T00:05:52;97888.16;;;10.83;63.67
19005;BME280;9635;52.078;8.648;2023-03-14T00:10:55;97892.22;;;10.94;63.69
19005;BME280;9635;52.078;8.648;2023-03-14T00:16:03;97911.75;;;11.03;63.24
19005;BME280;9635;52.078;8.648;2023-03-14T00:21:08;97916.38;;;11.09;63.38
19005;BME280;9635;52.078;8.648;2023-03-14T00:26:13;97923.06;;;10.83;64.15
19005;BME280;9635;52.078;8.648;2023-03-14T00:31:18;97896.13;;;10.92;63.60
19005;BME280;9635;52.078;8.648;2023-03-14T00:36:21;97928.25;;;10.70;64.29
19005;BME280;9635;52.078;8.648;2023-03-14T00:41:24;97918.31;;;10.86;63.93
19005;BME280;9635;52.078;8.648;2023-03-14T00:46:29;97900.56;;;10.70;64.57
19005;BME280;9635;52.078;8.648;2023-03-14T00:51:32;97891.03;;;10.67;64.56
19005;BME280;9635;52.078;8.648;2023-03-14T00:56:35;97858.16;;;10.80;64.04
19005;BME280;9635;52.078;8.648;2023-03-14T01:01:39;97876.31;;;10.78;64.02
19005;BME280;9635;52.078;8.648;2023-03-14T01:06:43;97881.31;;;10.51;64.65
19005;BME280;9635;52.078;8.648;2023-03-14T01:11:46;97868.38;;;10.70;64.13
19005;BME280;9635;52.078;8.648;2023-03-14T01:16:52;97882.78;;;10.69;64.02
19005;BME280;9635;52.078;8.648;2023-03-14T01:21:55;97878.09;;;10.56;64.09
19005;BME280;9635;52.078;8.648;2023-03-14T01:26:58;97851.88;;;10.73;63.71
19005;BME280;9635;52.078;8.648;2023-03-14T01:32:04;97841.25;;;10.65;63.83
19005;BME280;9635;52.078;8.648;2023-03-14T01:37:07;97821.75;;;10.77;63.62
19005;BME280;9635;52.078;8.648;2023-03-14T01:42:11;97832.72;;;10.46;63.68
19005;BME280;9635;52.078;8.648;2023-03-14T01:47:16;97835.88;;;10.65;63.93
19005;BME280;9635;52.078;8.648;2023-03-14T01:52:24;97827.13;;;10.77;62.93
19005;BME280;9635;52.078;8.648;2023-03-14T01:57:30;97825.41;;;10.55;63.98
19005;BME280;9635;52.078;8.648;2023-03-14T02:02:35;97831.63;;;10.41;63.71
19005;BME280;9635;52.078;8.648;2023-03-14T02:07:43;97815.69;;;10.54;63.51
19005;BME280;9635;52.078;8.648;2023-03-14T02:12:55;97795.59;;;10.50;63.78
19005;BME280;9635;52.078;8.648;2023-03-14T02:18:13;97801.91;;;10.42;64.09
19005;BME280;9635;52.078;8.648;2023-03-14T02:23:43;97783.41;;;10.32;63.61
19005;BME280;9635;52.078;8.648;2023-03-14T02:28:50;97802.44;;;10.67;63.17
19005;BME280;9635;52.078;8.648;2023-03-14T02:33:55;97817.75;;;10.37;64.17
19005;BME280;9635;52.078;8.648;2023-03-14T02:39:05;97846.44;;;8.83;82.68
19005;BME280;9635;52.078;8.648;2023-03-14T02:44:15;97884.59;;;7.40;90.48
19005;BME280;9635;52.078;8.648;2023-03-14T02:49:18;97884.59;;;7.40;88.18
19005;BME280;9635;52.078;8.648;2023-03-14T02:54:20;97879.75;;;7.35;87.26
19005;BME280;9635;52.078;8.648;2023-03-14T02:59:26;97851.19;;;7.27;88.12
19005;BME280;9635;52.078;8.648;2023-03-14T03:04:32;97841.38;;;7.53;87.12
19005;BME280;9635;52.078;8.648;2023-03-14T03:09:35;97857.34;;;7.20;86.78
19005;BME280;9635;52.078;8.648;2023-03-14T03:14:41;97844.19;;;7.43;86.07
19005;BME280;9635;52.078;8.648;2023-03-14T03:19:43;97834.66;;;7.08;85.79
19005;BME280;9635;52.078;8.648;2023-03-14T03:24:46;97853.84;;;7.19;84.17
19005;BME280;9635;52.078;8.648;2023-03-14T03:29:50;97818.00;;;7.38;83.63
19005;BME280;9635;52.078;8.648;2023-03-14T03:34:54;97815.34;;;7.46;82.39
19005;BME280;9635;52.078;8.648;2023-03-14T03:39:57;97823.47;;;7.20;81.89
19005;BME280;9635;52.078;8.648;2023-03-14T03:45:02;97831.34;;;7.63;80.07
19005;BME280;9635;52.078;8.648;2023-03-14T03:50:10;97832.69;;;7.42;79.45
19005;BME280;9635;52.078;8.648;2023-03-14T03:55:13;97818.16;;;7.78;78.71
19005;BME280;9635;52.078;8.648;2023-03-14T04:00:18;97823.81;;;7.91;78.12
19005;BME280;9635;52.078;8.648;2023-03-14T04:05:22;97831.16;;;7.81;78.53
19005;BME280;9635;52.078;8.648;2023-03-14T04:10:36;97831.19;;;7.48;78.39
19005;BME280;9635;52.078;8.648;2023-03-14T04:15:56;97822.50;;;7.62;79.11
19005;BME280;9635;52.078;8.648;2023-03-14T04:21:02;97811.16;;;7.36;79.58
19005;BME280;9635;52.078;8.648;2023-03-14T04:26:16;97820.81;;;7.78;79.34
19005;BME280;9635;52.078;8.648;2023-03-14T04:31:21;97807.47;;;7.61;80.35
19005;BME280;9635;52.078;8.648;2023-03-14T04:36:25;97812.66;;;7.63;80.27
19005;BME280;9635;52.078;8.648;2023-03-14T04:41:29;97800.56;;;8.00;80.00
19005;BME280;9635;52.078;8.648;2023-03-14T04:46:34;97808.78;;;7.90;79.47
19005;BME280;9635;52.078;8.648;2023-03-14T04:51:40;97811.31;;;7.59;80.53
19005;BME280;9635;52.078;8.648;2023-03-14T04:56:43;97796.91;;;7.84;79.24
19005;BME280;9635;52.078;8.648;2023-03-14T05:01:47;97795.28;;;7.67;79.58
19005;BME280;9635;52.078;8.648;2023-03-14T05:07:14;97780.28;;;7.49;79.89
19005;BME280;9635;52.078;8.648;2023-03-14T05:12:40;97779.69;;;7.95;77.70
19005;BME280;9635;52.078;8.648;2023-03-14T05:18:05;97774.88;;;7.90;77.72
19005;BME280;9635;52.078;8.648;2023-03-14T05:23:29;97775.53;;;7.76;78.35
19005;BME280;9635;52.078;8.648;2023-03-14T05:29:00;97785.41;;;7.76;78.62
19005;BME280;9635;52.078;8.648;2023-03-14T05:34:22;97797.44;;;7.80;77.75
19005;BME280;9635;52.078;8.648;2023-03-14T05:39:37;97755.00;;;7.85;77.17
19005;BME280;9635;52.078;8.648;2023-03-14T05:45:00;97746.81;;;7.78;78.71
19005;BME280;9635;52.078;8.648;2023-03-14T05:50:23;97750.28;;;7.95;77.05
19005;BME280;9635;52.078;8.648;2023-03-14T05:55:51;97753.31;;;7.92;77.31
19005;BME280;9635;52.078;8.648;2023-03-14T06:01:15;97752.94;;;8.03;76.30
19005;BME280;9635;52.078;8.648;2023-03-14T06:06:36;97759.91;;;8.21;74.73
19005;BME280;9635;52.078;8.648;2023-03-14T06:11:40;97755.78;;;8.02;76.66
19005;BME280;9635;52.078;8.648;2023-03-14T06:16:43;97757.03;;;7.66;79.37
19005;BME280;9635;52.078;8.648;2023-03-14T06:21:48;97765.56;;;7.37;81.00
19005;BME280;9635;52.078;8.648;2023-03-14T06:26:51;97762.84;;;7.78;79.91
19005;BME280;9635;52.078;8.648;2023-03-14T06:31:55;97763.41;;;7.49;81.56
19005;BME280;9635;52.078;8.648;2023-03-14T06:36:59;97762.41;;;7.25;82.95
19005;BME280;9635;52.078;8.648;2023-03-14T06:42:02;97772.53;;;6.81;84.91
19005;BME280;9635;52.078;8.648;2023-03-14T06:47:06;97787.09;;;6.52;87.11
19005;BME280;9635;52.078;8.648;2023-03-14T06:52:14;97788.66;;;6.63;87.94
19005;BME280;9635;52.078;8.648;2023-03-14T06:57:17;97782.91;;;6.92;87.64
19005;BME280;9635;52.078;8.648;2023-03-14T07:02:22;97781.75;;;7.03;86.79
19005;BME280;9635;52.078;8.648;2023-03-14T07:07:43;97775.69;;;6.76;87.19
19005;BME280;9635;52.078;8.648;2023-03-14T07:12:46;97780.25;;;6.92;86.94
19005;BME280;9635;52.078;8.648;2023-03-14T07:17:50;97779.25;;;6.93;87.33
19005;BME280;9635;52.078;8.648;2023-03-14T07:22:57;97789.44;;;7.06;86.57
19005;BME280;9635;52.078;8.648;2023-03-14T07:28:11;97787.09;;;6.95;87.60
19005;BME280;9635;52.078;8.648;2023-03-14T07:33:16;97779.25;;;7.26;87.22
19005;BME280;9635;52.078;8.648;2023-03-14T07:38:21;97789.56;;;6.96;88.67
19005;BME280;9635;52.078;8.648;2023-03-14T07:43:44;97789.41;;;6.90;89.64
19005;BME280;9635;52.078;8.648;2023-03-14T07:48:46;97792.44;;;7.11;89.92
19005;BME280;9635;52.078;8.648;2023-03-14T07:53:51;97781.44;;;7.14;89.86
19005;BME280;9635;52.078;8.648;2023-03-14T07:58:53;97781.94;;;7.50;89.90
19005;BME280;9635;52.078;8.648;2023-03-14T08:03:56;97777.75;;;7.40;91.08
19005;BME280;9635;52.078;8.648;2023-03-14T08:09:01;97784.94;;;7.56;90.43
19005;BME280;9635;52.078;8.648;2023-03-14T08:14:04;97770.91;;;7.54;91.10
19005;BME280;9635;52.078;8.648;2023-03-14T08:19:07;97810.47;;;7.58;90.79
19005;BME280;9635;52.078;8.648;2023-03-14T08:24:11;97788.63;;;7.22;91.70
19005;BME280;9635;52.078;8.648;2023-03-14T08:29:14;97780.09;;;7.35;90.68
19005;BME280;9635;52.078;8.648;2023-03-14T08:34:17;97794.28;;;7.11;93.75
19005;BME280;9635;52.078;8.648;2023-03-14T08:39:21;97791.78;;;7.58;91.95
19005;BME280;9635;52.078;8.648;2023-03-14T08:44:24;97794.47;;;7.58;92.17
19005;BME280;9635;52.078;8.648;2023-03-14T08:49:27;97818.66;;;7.57;91.85
19005;BME280;9635;52.078;8.648;2023-03-14T08:54:31;97802.78;;;7.80;91.51
19005;BME280;9635;52.078;8.648;2023-03-14T08:59:34;97787.06;;;7.93;92.28
19005;BME280;9635;52.078;8.648;2023-03-14T09:04:37;97786.88;;;7.94;90.86
19005;BME280;9635;52.078;8.648;2023-03-14T09:09:41;97794.47;;;8.22;90.11
19005;BME280;9635;52.078;8.648;2023-03-14T09:14:44;97802.50;;;8.22;90.02
19005;BME280;9635;52.078;8.648;2023-03-14T09:19:47;97803.84;;;8.26;90.13
19005;BME280;9635;52.078;8.648;2023-03-14T09:24:51;97789.97;;;8.23;90.46
19005;BME280;9635;52.078;8.648;2023-03-14T09:29:54;97793.44;;;8.48;88.99
19005;BME280;9635;52.078;8.648;2023-03-14T09:34:56;97787.94;;;8.33;88.88
19005;BME280;9635;52.078;8.648;2023-03-14T09:40:00;97789.97;;;8.70;86.66
19005;BME280;9635;52.078;8.648;2023-03-14T09:45:16;97798.41;;;8.59;85.66
19005;BME280;9635;52.078;8.648;2023-03-14T09:50:25;97791.06;;;8.84;84.89
19005;BME280;9635;52.078;8.648;2023-03-14T09:55:29;97798.41;;;9.36;83.09
19005;BME280;9635;52.078;8.648;2023-03-14T10:00:35;97784.72;;;9.31;82.63
19005;BME280;9635;52.078;8.648;2023-03-14T10:05:38;97807.03;;;9.23;81.95
19005;BME280;9635;52.078;8.648;2023-03-14T10:10:42;97815.13;;;9.15;82.79
19005;BME280;9635;52.078;8.648;2023-03-14T10:15:50;97830.91;;;8.79;85.01
19005;BME280;9635;52.078;8.648;2023-03-14T10:21:03;97826.59;;;8.70;87.04
19005;BME280;9635;52.078;8.648;2023-03-14T10:26:12;97819.00;;;8.42;87.07
19005;BME280;9635;52.078;8.648;2023-03-14T10:31:16;97834.19;;;8.50;86.25
19005;BME280;9635;52.078;8.648;2023-03-14T10:36:22;97845.13;;;8.79;84.99
19005;BME280;9635;52.078;8.648;2023-03-14T10:41:31;97891.78;;;7.56;92.39
19005;BME280;9635;52.078;8.648;2023-03-14T10:46:34;97922.09;;;6.79;95.98
19005;BME280;9635;52.078;8.648;2023-03-14T10:52:01;97942.06;;;6.67;96.05
19005;BME280;9635;52.078;8.648;2023-03-14T10:57:05;97958.38;;;6.38;97.20
19005;BME280;9635;52.078;8.648;2023-03-14T11:02:20;98025.16;;;6.80;95.38
19005;BME280;9635;52.078;8.648;2023-03-14T11:07:33;98050.09;;;6.27;91.55
19005;BME280;9635;52.078;8.648;2023-03-14T11:12:44;98074.78;;;5.93;91.76
19005;BME280;9635;52.078;8.648;2023-03-14T11:18:13;98111.50;;;5.44;91.77
19005;BME280;9635;52.078;8.648;2023-03-14T11:23:21;98138.03;;;5.36;91.71
19005;BME280;9635;52.078;8.648;2023-03-14T11:28:31;98173.28;;;4.91;90.77
19005;BME280;9635;52.078;8.648;2023-03-14T11:33:38;98223.31;;;4.18;90.43
19005;BME280;9635;52.078;8.648;2023-03-14T11:38:46;98242.91;;;4.27;89.96
19005;BME280;9635;52.078;8.648;2023-03-14T11:43:54;98274.09;;;4.15;89.84
19005;BME280;9635;52.078;8.648;2023-03-14T11:49:02;98307.84;;;4.34;90.00
19005;BME280;9635;52.078;8.648;2023-03-14T11:54:14;98314.72;;;4.36;90.45
19005;BME280;9635;52.078;8.648;2023-03-14T11:59:21;98330.41;;;4.39;89.17
19005;BME280;9635;52.078;8.648;2023-03-14T12:04:54;98356.63;;;4.23;89.64
19005;BME280;9635;52.078;8.648;2023-03-14T12:09:58;98379.75;;;4.82;89.63
19005;BME280;9635;52.078;8.648;2023-03-14T12:15:05;98420.34;;;4.75;88.64
19005;BME280;9635;52.078;8.648;2023-03-14T12:20:16;98428.47;;;4.43;87.38
19005;BME280;9635;52.078;8.648;2023-03-14T12:25:22;98459.63;;;4.61;86.48
19005;BME280;9635;52.078;8.648;2023-03-14T12:30:29;98483.09;;;4.87;86.46
19005;BME280;9635;52.078;8.648;2023-03-14T12:35:35;98485.16;;;4.74;84.55
19005;BME280;9635;52.078;8.648;2023-03-14T12:40:40;98511.75;;;5.04;82.09
19005;BME280;9635;52.078;8.648;2023-03-14T12:46:09;98508.38;;;5.43;82.83
19005;BME280;9635;52.078;8.648;2023-03-14T12:51:19;98495.53;;;6.06;80.91
19005;BME280;9635;52.078;8.648;2023-03-14T12:56:26;98508.81;;;6.35;79.27
19005;BME280;9635;52.078;8.648;2023-03-14T13:01:32;98518.25;;;5.91;77.07
19005;BME280;9635;52.078;8.648;2023-03-14T13:06:50;98535.91;;;5.92;79.10
19005;BME280;9635;52.078;8.648;2023-03-14T13:12:00;98558.22;;;5.31;77.24
19005;BME280;9635;52.078;8.648;2023-03-14T13:17:05;98580.19;;;5.54;78.43
19005;BME280;9635;52.078;8.648;2023-03-14T13:22:34;98635.84;;;4.84;80.21
19005;BME280;9635;52.078;8.648;2023-03-14T13:27:40;98625.41;;;4.18;81.62
19005;BME280;9635;52.078;8.648;2023-03-14T13:32:47;98651.22;;;4.60;80.67
19005;BME280;9635;52.078;8.648;2023-03-14T13:37:55;98651.56;;;5.09;80.18
19005;BME280;9635;52.078;8.648;2023-03-14T13:43:15;98667.34;;;5.00;80.25
19005;BME280;9635;52.078;8.648;2023-03-14T13:48:21;98673.31;;;5.14;78.78
19005;BME280;9635;52.078;8.648;2023-03-14T13:53:25;98687.00;;;5.30;79.72
19005;BME280;9635;52.078;8.648;2023-03-14T13:58:29;98698.59;;;4.87;77.91
19005;BME280;9635;52.078;8.648;2023-03-14T14:03:37;98726.97;;;4.98;79.17
19005;BME280;9635;52.078;8.648;2023-03-14T14:08:41;98736.31;;;5.55;77.48
19005;BME280;9635;52.078;8.648;2023-03-14T14:13:44;98760.78;;;6.01;74.99
19005;BME280;9635;52.078;8.648;2023-03-14T14:18:50;98766.97;;;6.11;72.91
19005;BME280;9635;52.078;8.648;2023-03-14T14:23:54;98776.53;;;5.52;68.24
19005;BME280;9635;52.078;8.648;2023-03-14T14:29:05;98791.91;;;5.48;66.33
19005;BME280;9635;52.078;8.648;2023-03-14T14:34:19;98835.75;;;4.80;62.97
19005;BME280;9635;52.078;8.648;2023-03-14T14:39:24;98850.97;;;5.00;65.19
19005;BME280;9635;52.078;8.648;2023-03-14T14:44:33;98850.75;;;5.24;62.63
19005;BME280;9635;52.078;8.648;2023-03-14T14:49:38;98871.38;;;8.96;63.00
19005;BME280;9635;52.078;8.648;2023-03-14T14:54:44;98880.38;;;8.40;54.57
19005;BME280;9635;52.078;8.648;2023-03-14T14:59:49;98898.38;;;6.53;58.15
19005;BME280;9635;52.078;8.648;2023-03-14T15:04:55;98926.59;;;6.25;62.25
19005;BME280;9635;52.078;8.648;2023-03-14T15:09:58;98937.28;;;5.83;60.82
19005;BME280;9635;52.078;8.648;2023-03-14T15:15:01;98947.47;;;5.78;62.03
19005;BME280;9635;52.078;8.648;2023-03-14T15:20:10;98979.78;;;5.53;62.67
19005;BME280;9635;52.078;8.648;2023-03-14T15:25:15;98981.69;;;5.62;65.67
19005;BME280;9635;52.078;8.648;2023-03-14T15:30:37;98996.38;;;5.56;63.81
19005;BME280;9635;52.078;8.648;2023-03-14T15:35:42;98997.34;;;5.00;59.43
19005;BME280;9635;52.078;8.648;2023-03-14T15:40:45;99009.59;;;5.79;65.55
19005;BME280;9635;52.078;8.648;2023-03-14T15:45:48;99019.50;;;5.56;57.52
19005;BME280;9635;52.078;8.648;2023-03-14T15:50:53;99030.44;;;5.41;58.08
19005;BME280;9635;52.078;8.648;2023-03-14T15:55:56;99041.50;;;5.69;61.66
19005;BME280;9635;52.078;8.648;2023-03-14T16:00:58;99053.56;;;5.18;54.91
19005;BME280;9635;52.078;8.648;2023-03-14T16:06:04;99063.13;;;5.43;55.96
19005;BME280;9635;52.078;8.648;2023-03-14T16:11:07;99070.50;;;5.40;57.04
19005;BME280;9635;52.078;8.648;2023-03-14T16:16:11;99073.06;;;5.19;55.97
19005;BME280;9635;52.078;8.648;2023-03-14T16:21:17;99083.88;;;5.72;56.88
19005;BME280;9635;52.078;8.648;2023-03-14T16:26:20;99100.75;;;5.50;56.59
19005;BME280;9635;52.078;8.648;2023-03-14T16:31:23;99108.47;;;4.97;52.77
19005;BME280;9635;52.078;8.648;2023-03-14T16:36:27;99130.91;;;5.17;54.74
19005;BME280;9635;52.078;8.648;2023-03-14T16:41:30;99140.03;;;4.90;54.20
19005;BME280;9635;52.078;8.648;2023-03-14T16:46:33;99155.66;;;4.48;54.33
19005;BME280;9635;52.078;8.648;2023-03-14T16:51:38;99176.44;;;4.54;53.93
19005;BME280;9635;52.078;8.648;2023-03-14T16:56:42;99190.44;;;4.21;54.26
19005;BME280;9635;52.078;8.648;2023-03-14T17:01:45;99193.34;;;4.18;52.97
19005;BME280;9635;52.078;8.648;2023-03-14T17:06:51;99221.38;;;4.22;53.49
19005;BME280;9635;52.078;8.648;2023-03-14T17:11:54;99235.44;;;3.75;51.53
19005;BME280;9635;52.078;8.648;2023-03-14T17:16:57;99254.47;;;3.68;51.93
19005;BME280;9635;52.078;8.648;2023-03-14T17:22:03;99268.75;;;4.04;52.80
19005;BME280;9635;52.078;8.648;2023-03-14T17:27:23;99291.13;;;3.63;52.08
19005;BME280;9635;52.078;8.648;2023-03-14T17:32:26;99296.63;;;3.86;52.24
19005;BME280;9635;52.078;8.648;2023-03-14T17:37:31;99309.94;;;3.73;51.71
19005;BME280;9635;52.078;8.648;2023-03-14T17:42:34;99330.41;;;3.45;53.13
19005;BME280;9635;52.078;8.648;2023-03-14T17:47:36;99343.34;;;3.24;53.54
19005;BME280;9635;52.078;8.648;2023-03-14T17:52:40;99357.66;;;3.22;53.28
19005;BME280;9635;52.078;8.648;2023-03-14T17:57:43;99374.03;;;3.01;53.74
19005;BME280;9635;52.078;8.648;2023-03-14T18:02:46;99391.41;;;2.93;53.76
19005;BME280;9635;52.078;8.648;2023-03-14T18:07:50;99405.38;;;3.09;53.03
19005;BME280;9635;52.078;8.648;2023-03-14T18:12:53;99416.19;;;3.06;53.41
19005;BME280;9635;52.078;8.648;2023-03-14T18:17:56;99430.44;;;3.05;53.23
19005;BME280;9635;52.078;8.648;2023-03-14T18:23:00;99434.06;;;3.17;53.11
19005;BME280;9635;52.078;8.648;2023-03-14T18:28:03;99448.09;;;3.19;52.84
19005;BME280;9635;52.078;8.648;2023-03-14T18:33:06;99465.69;;;2.93;53.45
19005;BME280;9635;52.078;8.648;2023-03-14T18:38:11;99458.59;;;3.20;52.48
19005;BME280;9635;52.078;8.648;2023-03-14T18:43:13;99472.84;;;3.46;53.50
19005;BME280;9635;52.078;8.648;2023-03-14T18:48:16;99475.78;;;3.42;53.25
19005;BME280;9635;52.078;8.648;2023-03-14T18:53:21;99484.50;;;3.17;53.73
19005;BME280;9635;52.078;8.648;2023-03-14T18:58:28;99499.25;;;3.21;52.53
19005;BME280;9635;52.078;8.648;2023-03-14T19:03:33;99511.91;;;3.03;52.25
19005;BME280;9635;52.078;8.648;2023-03-14T19:08:40;99514.38;;;3.06;52.58
19005;BME280;9635;52.078;8.648;2023-03-14T19:13:43;99533.47;;;2.70;52.92
19005;BME280;9635;52.078;8.648;2023-03-14T19:18:46;99531.47;;;2.59;52.93
19005;BME280;9635;52.078;8.648;2023-03-14T19:23:50;99541.06;;;2.31;53.78
19005;BME280;9635;52.078;8.648;2023-03-14T19:28:53;99555.28;;;2.45;54.19
19005;BME280;9635;52.078;8.648;2023-03-14T19:33:56;99562.91;;;2.21;55.28
19005;BME280;9635;52.078;8.648;2023-03-14T19:39:02;99589.13;;;2.55;55.10
19005;BME280;9635;52.078;8.648;2023-03-14T19:44:06;99591.03;;;2.53;55.43
19005;BME280;9635;52.078;8.648;2023-03-14T19:49:09;99591.50;;;2.60;55.28
19005;BME280;9635;52.078;8.648;2023-03-14T19:54:13;99611.09;;;2.57;55.47
19005;BME280;9635;52.078;8.648;2023-03-14T19:59:16;99618.16;;;2.12;55.60
19005;BME280;9635;52.078;8.648;2023-03-14T20:04:19;99617.66;;;2.80;55.08
19005;BME280;9635;52.078;8.648;2023-03-14T20:09:23;99634.22;;;2.39;56.12
19005;BME280;9635;52.078;8.648;2023-03-14T20:14:26;99641.53;;;2.50;55.94
19005;BME280;9635;52.078;8.648;2023-03-14T20:19:29;99651.19;;;2.81;56.28
19005;BME280;9635;52.078;8.648;2023-03-14T20:24:34;99654.66;;;2.37;56.06
19005;BME280;9635;52.078;8.648;2023-03-14T20:29:37;99653.78;;;2.53;55.94
19005;BME280;9635;52.078;8.648;2023-03-14T20:34:40;99667.91;;;2.53;55.78
19005;BME280;9635;52.078;8.648;2023-03-14T20:39:44;99670.50;;;2.69;55.62
19005;BME280;9635;52.078;8.648;2023-03-14T20:44:47;99677.78;;;2.66;55.31
19005;BME280;9635;52.078;8.648;2023-03-14T20:49:49;99682.00;;;2.54;55.78
19005;BME280;9635;52.078;8.648;2023-03-14T20:54:53;99684.03;;;2.49;56.24
19005;BME280;9635;52.078;8.648;2023-03-14T21:00:00;99698.66;;;2.10;57.49
19005;BME280;9635;52.078;8.648;2023-03-14T21:05:03;99710.28;;;2.07;57.78
19005;BME280;9635;52.078;8.648;2023-03-14T21:10:11;99712.25;;;1.88;59.22
19005;BME280;9635;52.078;8.648;2023-03-14T21:15:14;99713.47;;;1.98;59.18
19005;BME280;9635;52.078;8.648;2023-03-14T21:20:18;99721.91;;;1.73;60.09
19005;BME280;9635;52.078;8.648;2023-03-14T21:25:22;99730.19;;;2.14;58.85
19005;BME280;9635;52.078;8.648;2023-03-14T21:30:25;99732.50;;;2.05;59.83
19005;BME280;9635;52.078;8.648;2023-03-14T21:35:29;99731.47;;;2.23;59.23
19005;BME280;9635;52.078;8.648;2023-03-14T21:40:33;99736.94;;;2.04;59.34
19005;BME280;9635;52.078;8.648;2023-03-14T21:45:37;99736.53;;;1.96;59.17
19005;BME280;9635;52.078;8.648;2023-03-14T21:50:39;99738.56;;;1.75;59.94
19005;BME280;9635;52.078;8.648;2023-03-14T21:55:45;99742.06;;;1.60;60.52
19005;BME280;9635;52.078;8.648;2023-03-14T22:00:48;99745.75;;;1.73;60.40
19005;BME280;9635;52.078;8.648;2023-03-14T22:05:51;99748.81;;;1.65;60.14
19005;BME280;9635;52.078;8.648;2023-03-14T22:10:55;99738.50;;;1.92;59.79
19005;BME280;9635;52.078;8.648;2023-03-14T22:15:58;99742.25;;;1.88;60.04
19005;BME280;9635;52.078;8.648;2023-03-14T22:21:01;99749.75;;;1.80;60.56
19005;BME280;9635;52.078;8.648;2023-03-14T22:26:05;99755.19;;;1.61;61.30
19005;BME280;9635;52.078;8.648;2023-03-14T22:31:08;99752.31;;;1.66;61.37
19005;BME280;9635;52.078;8.648;2023-03-14T22:36:12;99761.25;;;1.63;61.57
19005;BME280;9635;52.078;8.648;2023-03-14T22:41:16;99763.91;;;1.63;61.82
19005;BME280;9635;52.078;8.648;2023-03-14T22:46:19;99772.81;;;1.62;61.70
19005;BME280;9635;52.078;8.648;2023-03-14T22:51:21;99777.78;;;1.84;60.93
19005;BME280;9635;52.078;8.648;2023-03-14T22:56:26;99776.31;;;1.63;61.06
19005;BME280;9635;52.078;8.648;2023-03-14T23:01:28;99774.56;;;1.62;60.97
19005;BME280;9635;52.078;8.648;2023-03-14T23:06:31;99782.84;;;1.56;61.72
19005;BME280;9635;52.078;8.648;2023-03-14T23:11:36;99779.59;;;1.50;61.68
19005;BME280;9635;52.078;8.648;2023-03-14T23:16:38;99775.00;;;1.54;61.60
19005;BME280;9635;52.078;8.648;2023-03-14T23:21:41;99783.19;;;1.49;62.11
19005;BME280;9635;52.078;8.648;2023-03-14T23:26:46;99774.84;;;1.40;62.07
19005;BME280;9635;52.078;8.648;2023-03-14T23:31:48;99784.63;;;1.22;62.66
19005;BME280;9635;52.078;8.648;2023-03-14T23:36:51;99787.19;;;1.23;62.67
19005;BME280;9635;52.078;8.648;2023-03-14T23:41:56;99797.94;;;1.20;62.49
19005;BME280;9635;52.078;8.648;2023-03-14T23:46:59;99792.78;;;1.35;62.08
19005;BME280;9635;52.078;8.648;2023-03-14T23:52:01;99809.44;;;1.37;61.40
19005;BME280;9635;52.078;8.648;2023-03-14T23:57:06;99813.72;;;1.39;61.63
